Time;durP1;ratioP1;P1;durP2;ratioP2;P2;SDS_P1;SDS_P2;PMS_P1;PMS_P2;Temp;Humidity;BMP_temperature;BMP_pressure;BME280_temperature;BME280_humidity;BME280_pressure;Samples;Min_cycle;Max_cycle;Signal;HPM_P1;HPM_P2
2023/03/31 00:00:33;;;;;;;9.40;2.10;;;;;;;10.72;93.05;100058.75;5055257;28;20045;-56
2023/03/31 00:03:01;;;;;;;12.65;2.58;;;;;;;10.62;92.82;100053.63;5049975;28;20399;-56
2023/03/31 00:05:27;;;;;;;14.02;2.05;;;;;;;10.73;93.34;100049.78;5055661;28;20505;-56
2023/03/31 00:08:02;;;;;;;11.75;2.50;;;;;;;10.74;91.89;100044.31;5047540;28;20045;-56
2023/03/31 00:10:32;;;;;;;13.35;2.03;;;;;;;10.75;92.31;100051.28;5055430;28;20053;-56
2023/03/31 00:13:00;;;;;;;11.50;2.15;;;;;;;10.81;91.17;100055.06;5050563;28;20114;-56
2023/03/31 00:15:27;;;;;;;9.85;2.05;;;;;;;10.79;91.37;100040.31;5055768;28;20044;-56
2023/03/31 00:17:59;;;;;;;15.95;2.35;;;;;;;10.69;92.91;100043.19;5049954;28;20040;-56
2023/03/31 00:20:25;;;;;;;;;;;;;;;10.65;93.48;100033.91;5055303;28;20040;-56
2023/03/31 00:22:53;;;;;;;14.48;2.40;;;;;;;10.71;92.84;100034.06;5049889;28;20121;-56
2023/03/31 00:25:20;;;;;;;12.40;2.17;;;;;;;10.74;92.97;100028.41;5054192;28;20049;-56
2023/03/31 00:27:49;;;;;;;12.98;2.72;;;;;;;10.71;91.64;100025.25;5067890;28;20132;-55
2023/03/31 00:30:16;;;;;;;11.55;2.22;;;;;;;10.76;91.60;100017.63;5074935;28;20040;-55
2023/03/31 00:32:42;;;;;;;13.18;2.38;;;;;;;10.75;92.58;100008.00;5070271;28;20044;-55
2023/03/31 00:35:09;;;;;;;12.68;2.58;;;;;;;10.83;92.70;99993.88;5075146;28;20128;-56
2023/03/31 00:37:36;;;;;;;14.20;2.78;;;;;;;10.80;93.67;99991.56;5070962;28;20082;-56
2023/03/31 00:40:08;;;;;;;11.88;2.35;;;;;;;10.76;94.51;99978.66;5073829;28;20048;-56
2023/03/31 00:42:40;;;;;;;9.23;2.30;;;;;;;10.76;95.87;99975.16;5071358;28;20048;-55
2023/03/31 00:45:22;;;;;;;13.57;2.40;;;;;;;10.80;95.63;99955.25;5074298;28;20084;-56
2023/03/31 00:47:58;;;;;;;11.10;2.20;;;;;;;10.68;98.09;99946.06;5069524;28;20052;-55
2023/03/31 00:50:29;;;;;;;12.65;2.60;;;;;;;10.67;98.57;99939.09;5074935;28;20048;-55
2023/03/31 00:53:01;;;;;;;11.40;2.20;;;;;;;10.75;97.75;99934.56;5055397;28;20044;-55
2023/03/31 00:55:35;;;;;;;11.70;2.10;;;;;;;10.68;97.89;99930.94;5054017;28;20498;-55
2023/03/31 00:58:05;;;;;;;12.10;2.50;;;;;;;10.62;98.73;99926.31;5049683;28;20049;-55
2023/03/31 01:00:31;;;;;;;13.77;2.85;;;;;;;10.56;100.00;99919.91;5054257;28;20040;-55
2023/03/31 01:03:05;;;;;;;13.13;2.58;;;;;;;10.55;99.73;99912.97;5048291;28;20296;-55
2023/03/31 01:05:39;;;;;;;11.90;2.58;;;;;;;10.53;100.00;99909.66;5054681;28;20041;-57
2023/03/31 01:08:07;;;;;;;14.18;2.08;;;;;;;10.47;100.00;99912.97;5047306;28;20048;-55
2023/03/31 01:10:42;;;;;;;13.43;2.50;;;;;;;10.41;100.00;99915.53;5053322;28;20152;-55
2023/03/31 01:13:13;;;;;;;15.77;2.50;;;;;;;10.42;100.00;99915.31;5049102;28;20044;-55
2023/03/31 01:15:41;;;;;;;14.43;2.20;;;;;;;10.49;100.00;99910.16;5054647;28;20501;-55
2023/03/31 01:18:10;;;;;;;15.95;2.65;;;;;;;10.47;100.00;99907.69;5049154;28;20041;-56
2023/03/31 01:23:54;;;;;;;10.40;2.20;;;;;;;10.43;100.00;99882.53;5105860;27;20376;-57
2023/03/31 01:26:48;;;;;;;15.65;2.55;;;;;;;10.46;100.00;99879.53;5096151;28;20052;-57
2023/03/31 01:29:55;;;;;;;18.33;2.30;;;;;;;10.49;100.00;99879.16;5085333;28;20641;-57
2023/03/31 01:33:02;;;;;;;17.60;2.70;;;;;;;10.47;100.00;99875.03;5089301;28;20071;-57
2023/03/31 01:36:08;;;;;;;17.33;3.40;;;;;;;10.49;100.00;99862.44;5085290;28;20047;-56
2023/03/31 01:39:15;;;;;;;21.00;4.57;;;;;;;10.48;100.00;99860.81;5088689;28;20115;-56
2023/03/31 01:42:06;;;;;;;29.55;6.57;;;;;;;10.45;100.00;99854.00;5089534;28;20040;-56
2023/03/31 01:44:44;;;;;;;29.40;7.57;;;;;;;10.47;100.00;99859.13;5085665;28;20042;-56
2023/03/31 01:47:21;;;;;;;36.45;7.40;;;;;;;10.50;100.00;99858.78;5089160;28;20044;-57
2023/03/31 01:50:03;;;;;;;24.63;7.25;;;;;;;10.55;100.00;99851.13;5085168;28;20075;-56
2023/03/31 01:55:24;;;;;;;21.17;5.55;;;;;;;10.58;100.00;99837.50;5105625;27;20351;-57
2023/03/31 01:57:59;;;;;;;17.80;4.40;;;;;;;10.45;100.00;99834.63;5110451;28;20407;-56
2023/03/31 02:00:32;;;;;;;16.42;3.85;;;;;;;10.44;100.00;99836.47;5106026;28;20048;-57
2023/03/31 02:03:11;;;;;;;17.88;3.35;;;;;;;10.44;100.00;99835.63;5109528;28;20093;-56
2023/03/31 02:05:46;;;;;;;17.60;3.30;;;;;;;10.38;100.00;99831.84;5106997;28;20048;-56
2023/03/31 02:08:20;;;;;;;17.65;3.13;;;;;;;10.38;100.00;99818.59;5109420;28;20046;-56
2023/03/31 02:10:50;;;;;;;16.90;3.13;;;;;;;10.41;100.00;99825.38;5105320;28;20047;-57
2023/03/31 02:13:19;;;;;;;15.98;2.83;;;;;;;10.36;100.00;99812.63;5110316;28;20040;-57
2023/03/31 02:15:52;;;;;;;17.52;3.22;;;;;;;10.35;100.00;99817.13;5105376;28;20036;-56
2023/03/31 02:18:25;;;;;;;22.48;3.33;;;;;;;10.36;100.00;99802.84;5110439;28;20044;-57
2023/03/31 02:20:56;;;;;;;17.55;3.10;;;;;;;10.35;100.00;99792.41;5105570;28;20043;-57
2023/03/31 02:23:28;;;;;;;15.63;2.88;;;;;;;10.32;100.00;99779.53;5109679;28;20569;-56
2023/03/31 02:26:03;;;;;;;22.77;2.97;;;;;;;10.37;100.00;99783.31;5096938;28;20123;-57
2023/03/31 02:28:30;;;;;;;23.33;2.75;;;;;;;10.38;100.00;99771.69;5107679;28;20039;-56
2023/03/31 02:31:23;;;;;;;15.13;2.97;;;;;;;10.37;100.00;99755.97;5104989;28;20043;-56
2023/03/31 02:33:51;;;;;;;18.67;3.10;;;;;;;10.38;100.00;99749.66;5109387;28;20497;-56
2023/03/31 02:36:20;;;;;;;15.38;2.88;;;;;;;10.31;100.00;99743.41;5104808;28;20497;-56
2023/03/31 02:38:57;;;;;;;16.75;2.88;;;;;;;10.36;100.00;99728.63;5109381;28;20126;-56
2023/03/31 02:41:26;;;;;;;19.98;3.20;;;;;;;10.31;100.00;99720.38;5105486;28;20055;-56
2023/03/31 02:43:55;;;;;;;18.15;3.38;;;;;;;10.31;100.00;99715.06;5109920;28;20074;-56
2023/03/31 02:46:23;;;;;;;20.42;2.63;;;;;;;10.42;100.00;99707.69;5104330;28;20093;-56
2023/03/31 02:48:55;;;;;;;19.70;3.00;;;;;;;10.26;100.00;99709.47;5110217;28;20052;-57
2023/03/31 02:51:50;;;;;;;20.53;3.40;;;;;;;10.35;100.00;99689.03;5104462;28;20039;-57
2023/03/31 02:57:21;;;;;;;20.48;3.20;;;;;;;10.38;100.00;99683.38;5105551;27;20380;-56
2023/03/31 03:00:08;;;;;;;;;;;;;;;10.31;100.00;99670.00;5105999;28;20296;-56
2023/03/31 03:03:20;;;;;;;20.30;3.00;;;;;;;10.40;100.00;99654.03;5108843;28;20392;-56
2023/03/31 03:06:12;;;;;;;20.35;3.42;;;;;;;10.41;100.00;99634.50;5104843;28;20044;-56
2023/03/31 03:09:03;;;;;;;23.15;3.20;;;;;;;10.36;100.00;99619.94;5112298;28;20493;-56
2023/03/31 03:11:57;;;;;;;23.95;3.20;;;;;;;10.33;100.00;99622.97;5105695;28;20552;-56
2023/03/31 03:14:56;;;;;;;20.58;3.20;;;;;;;10.41;100.00;99629.19;5108186;28;20131;-56
2023/03/31 03:17:32;;;;;;;21.20;3.13;;;;;;;10.40;100.00;99631.00;5110194;28;20480;-56
2023/03/31 03:20:00;;;;;;;22.77;3.33;;;;;;;10.40;100.00;99606.31;5106298;28;20609;-57
2023/03/31 03:22:27;;;;;;;23.33;3.55;;;;;;;10.40;100.00;99598.38;5109311;28;20047;-57
2023/03/31 03:24:54;;;;;;;20.45;3.28;;;;;;;10.45;100.00;99596.81;5105151;28;20310;-57
2023/03/31 03:27:21;;;;;;;21.15;3.88;;;;;;;10.50;100.00;99597.09;5105293;28;20036;-56
2023/03/31 03:29:48;;;;;;;25.50;3.83;;;;;;;10.50;100.00;99597.09;5109302;28;20044;-56
2023/03/31 03:32:15;;;;;;;18.83;4.20;;;;;;;10.42;100.00;99589.22;5105725;28;20040;-56
2023/03/31 03:34:41;;;;;;;22.67;3.83;;;;;;;10.46;100.00;99579.91;5096107;28;20048;-57
2023/03/31 03:37:08;;;;;;;22.98;4.43;;;;;;;10.44;100.00;99570.47;5101571;28;20052;-56
2023/03/31 03:39:35;;;;;;;18.63;3.30;;;;;;;10.42;100.00;99575.13;5111895;28;20104;-56
2023/03/31 03:42:02;;;;;;;16.50;3.47;;;;;;;10.40;100.00;99574.50;5124894;27;20491;-56
2023/03/31 03:44:29;;;;;;;22.98;4.00;;;;;;;10.40;100.00;99588.56;5129461;27;20054;-56
2023/03/31 03:46:56;;;;;;;21.10;3.95;;;;;;;10.48;100.00;99587.69;5124843;27;20043;-56
2023/03/31 03:49:23;;;;;;;22.20;3.65;;;;;;;10.51;100.00;99555.50;5129955;27;20055;-56
2023/03/31 03:51:49;;;;;;;22.25;3.25;;;;;;;10.46;100.00;99534.84;5124400;27;20047;-56
2023/03/31 03:54:16;;;;;;;27.65;3.90;;;;;;;10.31;100.00;99536.66;5128556;28;20040;-57
2023/03/31 03:56:42;;;;;;;28.20;4.93;;;;;;;10.41;100.00;99529.25;5123696;27;20438;-56
2023/03/31 03:59:10;;;;;;;25.65;5.88;;;;;;;10.50;100.00;99514.91;5128986;27;20047;-56
2023/03/31 04:01:37;;;;;;;29.52;4.97;;;;;;;10.42;100.00;99522.94;5123320;28;20047;-57
2023/03/31 04:04:04;;;;;;;28.52;4.97;;;;;;;10.35;100.00;99519.38;5129605;27;20051;-56
2023/03/31 04:06:30;;;;;;;22.40;3.72;;;;;;;10.44;100.00;99525.41;5120344;27;20052;-56
2023/03/31 04:08:57;;;;;;;24.90;3.58;;;;;;;10.44;100.00;99520.94;5105969;28;20378;-56
2023/03/31 04:11:24;;;;;;;16.13;3.13;;;;;;;10.38;100.00;99514.53;5091862;28;20283;-56
2023/03/31 04:13:52;;;;;;;19.25;3.50;;;;;;;10.43;100.00;99515.81;5094915;28;20044;-56
2023/03/31 04:16:19;;;;;;;24.55;3.63;;;;;;;10.46;100.00;99508.31;5090815;28;20048;-56
2023/03/31 04:18:47;;;;;;;26.23;3.00;;;;;;;10.47;100.00;99502.00;5094174;28;20056;-56
2023/03/31 04:21:21;;;;;;;17.00;2.95;;;;;;;10.33;100.00;99479.81;5091519;28;20074;-56
2023/03/31 04:23:57;;;;;;;17.15;3.28;;;;;;;10.46;100.00;99486.28;5095024;28;20052;-56
2023/03/31 04:26:30;;;;;;;14.52;2.80;;;;;;;10.60;100.00;99487.28;5090438;28;20036;-56
2023/03/31 04:28:59;;;;;;;14.93;2.83;;;;;;;10.56;100.00;99479.69;5092662;28;20401;-56
2023/03/31 04:31:26;;;;;;;16.92;3.33;;;;;;;10.50;100.00;99475.13;5094083;28;20436;-56
2023/03/31 04:33:53;;;;;;;12.88;2.63;;;;;;;10.51;100.00;99462.69;5089943;28;20535;-56
2023/03/31 04:36:21;;;;;;;14.82;2.72;;;;;;;10.39;100.00;99446.44;5094536;28;20040;-56
2023/03/31 04:38:49;;;;;;;15.73;2.50;;;;;;;10.32;100.00;99432.28;5089906;28;20101;-56
2023/03/31 04:41:16;;;;;;;18.10;2.97;;;;;;;10.25;100.00;99434.78;5094802;28;20409;-56
2023/03/31 04:43:43;;;;;;;17.65;3.03;;;;;;;10.40;100.00;99420.75;5090185;28;20089;-56
2023/03/31 04:46:10;;;;;;;16.92;2.90;;;;;;;10.29;100.00;99412.22;5094942;28;20040;-56
2023/03/31 04:48:37;;;;;;;9.98;2.33;;;;;;;10.34;100.00;99401.91;5089894;28;20048;-56
2023/03/31 04:51:04;;;;;;;20.70;3.17;;;;;;;10.32;100.00;99401.28;5094578;28;20044;-56
2023/03/31 04:53:31;;;;;;;15.90;2.70;;;;;;;10.28;100.00;99396.53;5090501;28;20448;-56
2023/03/31 04:55:57;;;;;;;11.18;2.35;;;;;;;10.17;100.00;99381.91;5094174;28;20443;-56
2023/03/31 04:58:24;;;;;;;19.65;2.42;;;;;;;10.09;100.00;99382.81;5089750;28;20481;-56
2023/03/31 05:00:51;;;;;;;12.70;2.20;;;;;;;10.14;100.00;99369.84;5094855;28;20044;-56
2023/03/31 05:03:19;;;;;;;12.63;2.45;;;;;;;10.14;100.00;99376.97;5089346;28;20044;-56
2023/03/31 05:05:46;;;;;;;13.10;2.45;;;;;;;10.11;100.00;99372.03;5093945;28;20127;-56
2023/03/31 05:08:12;;;;;;;8.80;2.20;;;;;;;10.14;99.54;99372.47;5089792;28;20051;-56
2023/03/31 05:10:39;;;;;;;9.40;2.15;;;;;;;10.26;97.97;99364.06;5112416;28;20051;-56
2023/03/31 05:13:08;;;;;;;11.25;2.10;;;;;;;10.25;98.92;99352.63;5109367;28;20093;-56
2023/03/31 05:15:37;;;;;;;11.80;2.47;;;;;;;10.32;97.14;99347.47;5114773;28;20051;-56
2023/03/31 05:18:05;;;;;;;11.05;2.25;;;;;;;10.26;98.77;99342.84;5109350;27;20039;-56
2023/03/31 05:20:32;;;;;;;12.85;2.22;;;;;;;10.23;97.82;99344.06;5113813;28;20035;-56
2023/03/31 05:22:59;;;;;;;9.50;2.35;;;;;;;10.30;96.57;99334.34;5093478;28;20051;-56
2023/03/31 05:25:31;;;;;;;16.00;2.80;;;;;;;10.29;98.66;99321.28;5094590;28;20123;-56
2023/03/31 05:27:58;;;;;;;9.48;2.22;;;;;;;10.41;95.44;99316.38;5089226;28;20485;-56
2023/03/31 05:30:26;;;;;;;12.73;2.38;;;;;;;10.37;95.55;99311.44;5090907;28;20075;-56
2023/03/31 05:32:53;;;;;;;16.08;2.40;;;;;;;10.41;96.40;99316.38;5093189;28;20393;-57
2023/03/31 05:35:20;;;;;;;9.88;2.40;;;;;;;10.37;95.28;99314.06;5089487;28;20081;-56
2023/03/31 05:37:47;;;;;;;9.82;2.50;;;;;;;10.38;94.76;99318.34;5094231;28;20051;-57
2023/03/31 05:40:14;;;;;;;10.88;2.65;;;;;;;10.38;95.37;99313.06;5088174;28;20105;-55
2023/03/31 05:42:40;;;;;;;8.45;2.40;;;;;;;10.42;95.95;99316.16;5093442;28;20101;-56
2023/03/31 05:45:08;;;;;;;12.18;2.70;;;;;;;10.28;95.33;99301.91;5089085;28;20478;-55
2023/03/31 05:47:35;;;;;;;12.27;2.50;;;;;;;10.34;95.49;99298.53;5092578;28;20436;-56
2023/03/31 05:50:06;;;;;;;16.75;2.75;;;;;;;10.34;96.11;99289.78;5088414;28;20485;-55
2023/03/31 05:52:33;;;;;;;10.68;2.42;;;;;;;10.38;93.95;99285.72;5093675;28;20044;-57
2023/03/31 05:54:59;;;;;;;9.57;2.75;;;;;;;10.46;96.53;99284.78;5087675;28;20056;-57
2023/03/31 05:57:26;;;;;;;12.85;2.50;;;;;;;10.47;95.51;99281.94;5079900;28;20041;-56
2023/03/31 05:59:53;;;;;;;10.70;2.33;;;;;;;10.47;95.42;99283.78;5101076;27;20197;-56
2023/03/31 06:02:20;;;;;;;10.60;2.22;;;;;;;10.54;95.41;99279.38;5084918;28;20046;-56
2023/03/31 06:04:47;;;;;;;13.00;2.25;;;;;;;10.52;95.05;99276.09;5107306;28;20078;-57
2023/03/31 06:07:13;;;;;;;10.63;2.35;;;;;;;10.63;94.39;99275.56;5112246;28;20051;-56
2023/03/31 06:09:40;;;;;;;6.97;2.08;;;;;;;10.52;95.66;99263.66;5085885;28;20087;-56
2023/03/31 06:12:07;;;;;;;8.88;2.05;;;;;;;10.31;97.85;99272.41;5093326;28;20044;-55
2023/03/31 06:14:34;;;;;;;8.65;2.60;;;;;;;10.34;98.41;99260.63;5087662;28;20058;-56
2023/03/31 06:17:01;;;;;;;14.88;3.50;;;;;;;10.33;98.88;99251.84;5092157;28;20405;-55
2023/03/31 06:19:28;;;;;;;12.98;2.85;;;;;;;10.41;99.46;99255.38;5088632;28;20091;-55
2023/03/31 06:21:55;;;;;;;13.00;2.60;;;;;;;10.40;98.85;99248.44;5092676;28;20072;-55
2023/03/31 06:24:22;;;;;;;10.50;2.60;;;;;;;10.33;98.94;99248.34;5087987;28;20051;-56
2023/03/31 06:26:48;;;;;;;8.75;2.42;;;;;;;10.31;99.87;99237.94;5092551;28;20097;-56
2023/03/31 06:29:15;;;;;;;11.85;2.63;;;;;;;10.30;99.95;99246.06;5080743;28;20108;-57
2023/03/31 06:31:42;;;;;;;11.48;2.40;;;;;;;10.19;100.00;99247.38;5091185;28;20048;-55
2023/03/31 06:34:09;;;;;;;7.47;2.17;;;;;;;10.17;100.00;99239.63;5092013;28;20036;-55
2023/03/31 06:36:35;;;;;;;10.27;2.83;;;;;;;10.26;100.00;99235.03;5086808;28;20494;-55
2023/03/31 06:39:02;;;;;;;10.50;2.90;;;;;;;10.17;100.00;99225.56;5092175;28;20537;-55
2023/03/31 06:41:29;;;;;;;14.07;2.78;;;;;;;10.13;100.00;99234.88;5088018;28;20123;-56
2023/03/31 06:43:55;;;;;;;14.43;3.42;;;;;;;10.18;100.00;99237.78;5093220;28;20540;-56
2023/03/31 06:46:23;;;;;;;18.25;3.33;;;;;;;10.11;100.00;99234.25;5086754;28;20043;-56
2023/03/31 06:48:49;;;;;;;16.77;3.58;;;;;;;10.14;100.00;99240.00;5092085;28;20052;-55
2023/03/31 06:51:16;;;;;;;17.95;3.35;;;;;;;10.26;100.00;99232.38;5088494;28;20044;-55
2023/03/31 06:53:43;;;;;;;15.38;3.60;;;;;;;10.21;100.00;99234.78;5092030;28;20470;-56
2023/03/31 06:56:10;;;;;;;13.48;3.58;;;;;;;10.12;100.00;99233.25;5087300;28;20056;-57
2023/03/31 06:58:36;;;;;;;15.05;4.10;;;;;;;10.22;100.00;99225.78;5089244;28;20048;-56
2023/03/31 07:01:04;;;;;;;16.48;3.53;;;;;;;10.18;100.00;99220.03;5081381;28;20461;-56
2023/03/31 07:03:32;;;;;;;18.08;3.90;;;;;;;10.11;100.00;99215.69;5092619;28;20047;-56
2023/03/31 07:05:59;;;;;;;13.20;2.97;;;;;;;10.21;100.00;99223.34;5081027;28;20036;-56
2023/03/31 07:08:26;;;;;;;11.27;3.15;;;;;;;10.12;100.00;99217.34;5087708;28;20388;-56
2023/03/31 07:10:57;;;;;;;16.10;3.40;;;;;;;10.19;100.00;99219.06;5083676;28;20040;-53
2023/03/31 07:13:24;;;;;;;16.48;3.90;;;;;;;10.47;99.53;99220.97;5091769;28;20066;-54
2023/03/31 07:15:52;;;;;;;10.85;2.80;;;;;;;10.53;100.00;99212.28;5065413;28;20488;-56
2023/03/31 07:18:20;;;;;;;11.75;2.92;;;;;;;10.55;100.00;99204.09;5085765;28;20066;-53
2023/03/31 07:20:49;;;;;;;14.95;3.78;;;;;;;10.63;100.00;99209.28;5094151;28;20063;-53
2023/03/31 07:23:16;;;;;;;13.32;4.20;;;;;;;10.68;99.05;99204.22;5095640;28;20179;-53
2023/03/31 07:25:44;;;;;;;17.30;4.97;;;;;;;10.83;98.96;99208.63;5090511;28;20397;-53
2023/03/31 07:28:11;;;;;;;16.08;4.38;;;;;;;10.89;98.82;99205.19;5095979;28;20126;-53
2023/03/31 07:30:39;;;;;;;16.48;3.92;;;;;;;11.05;97.02;99198.75;5079243;28;20424;-53
2023/03/31 07:33:07;;;;;;;15.55;3.33;;;;;;;11.17;94.52;99199.03;5077012;28;20097;-54
2023/03/31 07:35:37;;;;;;;24.92;5.68;;;;;;;11.29;95.76;99205.44;5073668;28;20899;-53
2023/03/31 07:38:04;;;;;;;12.02;2.53;;;;;;;11.39;93.42;99195.28;5097104;28;20047;-54
2023/03/31 07:40:31;;;;;;;10.88;2.10;;;;;;;11.55;91.62;99206.56;5081070;28;20532;-53
2023/03/31 07:42:57;;;;;;;10.98;2.10;;;;;;;11.72;90.87;99199.91;5103526;28;20082;-52
2023/03/31 07:45:25;;;;;;;14.70;2.92;;;;;;;11.81;90.43;99196.06;5103400;28;20124;-53
2023/03/31 07:47:52;;;;;;;10.25;2.33;;;;;;;12.13;89.19;99190.22;5076852;27;20659;-52
2023/03/31 07:50:20;;;;;;;10.10;2.30;;;;;;;12.23;88.70;99191.47;5082509;28;20054;-54
2023/03/31 07:52:50;;;;;;;10.80;2.35;;;;;;;12.21;85.49;99185.56;5087023;28;20053;-54
2023/03/31 07:55:18;;;;;;;11.25;2.50;;;;;;;12.21;84.66;99184.75;5092230;27;20071;-55
2023/03/31 07:57:46;;;;;;;12.57;2.63;;;;;;;12.09;87.55;99181.84;5092276;28;20032;-53
2023/03/31 08:00:14;;;;;;;11.98;3.20;;;;;;;12.13;86.87;99182.25;5086909;28;20044;-53
2023/03/31 08:02:42;;;;;;;30.92;10.50;;;;;;;12.18;85.63;99193.09;5056036;28;20753;-53
2023/03/31 08:05:11;;;;;;;17.95;6.30;;;;;;;12.24;84.37;99184.31;5091095;28;20040;-54
2023/03/31 08:07:41;;;;;;;9.40;3.38;;;;;;;12.22;84.01;99186.34;5089905;28;20041;-56
2023/03/31 08:10:11;;;;;;;11.20;2.33;;;;;;;11.87;88.23;99181.97;5085275;28;20035;-56
2023/03/31 08:12:38;;;;;;;18.52;2.50;;;;;;;11.83;89.57;99177.25;5063765;28;20044;-56
2023/03/31 08:15:06;;;;;;;8.48;2.30;;;;;;;11.75;90.38;99177.44;5091842;28;20048;-56
2023/03/31 08:17:32;;;;;;;10.07;2.03;;;;;;;11.61;92.18;99193.34;5072634;28;20040;-59
2023/03/31 08:19:59;;;;;;;11.63;2.17;;;;;;;11.58;92.56;99185.75;5098996;28;20103;-59
2023/03/31 08:22:28;;;;;;;13.68;2.13;;;;;;;11.50;94.00;99188.59;5100364;28;20040;-60
2023/03/31 08:24:55;;;;;;;14.82;2.75;;;;;;;11.43;96.43;99187.75;5090496;28;20132;-61
2023/03/31 08:27:21;;;;;;;11.93;2.42;;;;;;;11.32;93.79;99160.72;5079382;28;20548;-61
2023/03/31 08:29:48;;;;;;;19.55;3.38;;;;;;;11.45;92.92;99172.44;5071242;28;20603;-56
2023/03/31 08:32:15;;;;;;;16.52;2.75;;;;;;;11.45;93.72;99169.78;5075573;28;20123;-59
2023/03/31 08:34:42;;;;;;;17.02;3.22;;;;;;;11.55;92.83;99169.41;5086734;28;20114;-60
2023/03/31 08:37:09;;;;;;;9.25;2.28;;;;;;;11.78;92.60;99169.88;5091084;28;20733;-60
2023/03/31 08:39:36;;;;;;;16.23;2.47;;;;;;;11.75;93.34;99162.34;5096852;28;20048;-60
2023/03/31 08:42:12;;;;;;;15.68;3.22;;;;;;;11.77;92.02;99160.28;5095799;28;20044;-60
2023/03/31 08:45:20;;;;;;;17.58;3.08;;;;;;;12.10;91.64;99159.56;5094960;28;20040;-59
2023/03/31 08:47:50;;;;;;;20.73;3.00;;;;;;;12.22;90.76;99157.94;5069599;28;20045;-60
2023/03/31 08:50:23;;;;;;;16.10;2.65;;;;;;;12.29;89.18;99142.81;5088960;28;20054;-60
2023/03/31 08:53:15;;;;;;;17.38;2.83;;;;;;;12.41;86.95;99144.88;5100137;28;20059;-60
2023/03/31 08:55:47;;;;;;;;;;;;;;;12.75;87.61;99142.97;5085073;28;20540;-60
2023/03/31 08:58:40;;;;;;;16.95;2.90;;;;;;;13.04;83.55;99150.50;5090399;28;19920;-60
2023/03/31 09:01:41;;;;;;;21.88;4.88;;;;;;;13.33;80.08;99144.91;5074350;28;20547;-60
2023/03/31 09:04:46;;;;;;;21.42;4.65;;;;;;;13.51;78.76;99141.56;5071283;28;20068;-60
2023/03/31 09:07:39;;;;;;;21.30;5.15;;;;;;;13.49;76.90;99136.44;5086870;28;20074;-60
2023/03/31 09:10:31;;;;;;;29.45;4.50;;;;;;;13.30;77.49;99137.31;5092174;28;20036;-58
2023/03/31 09:13:24;;;;;;;21.23;3.08;;;;;;;13.12;78.07;99140.66;5077817;28;20516;-59
2023/03/31 09:16:01;;;;;;;89.88;4.82;;;;;;;13.14;82.00;99130.63;5085691;28;20435;-59
2023/03/31 09:18:31;;;;;;;17.67;3.90;;;;;;;13.13;80.67;99135.09;5063243;28;20044;-59
2023/03/31 09:21:19;;;;;;;23.10;3.55;;;;;;;13.06;83.47;99129.81;5086014;28;20059;-57
2023/03/31 09:24:08;;;;;;;16.42;2.45;;;;;;;13.14;76.92;99120.78;5091304;28;20052;-59
2023/03/31 09:26:41;;;;;;;19.48;3.20;;;;;;;13.16;78.25;99123.25;5079975;28;20043;-59
2023/03/31 09:29:36;;;;;;;16.95;2.83;;;;;;;13.20;78.60;99124.44;5090500;28;20059;-60
2023/03/31 09:32:22;;;;;;;31.02;3.42;;;;;;;13.19;76.79;99115.66;5070241;28;20109;-60
2023/03/31 09:34:56;;;;;;;19.40;3.78;;;;;;;13.31;77.97;99115.03;5066122;28;20040;-61
2023/03/31 09:37:28;;;;;;;20.10;3.00;;;;;;;13.36;76.97;99107.22;5073062;28;20542;-61
2023/03/31 09:39:58;;;;;;;20.15;3.08;;;;;;;13.63;75.71;99107.91;5074336;28;20091;-61
2023/03/31 09:42:25;;;;;;;23.25;3.78;;;;;;;13.91;74.55;99098.69;5077537;28;20049;-60
2023/03/31 09:44:52;;;;;;;21.10;3.22;;;;;;;14.08;73.46;99096.31;5090135;28;20073;-61
2023/03/31 09:47:41;;;;;;;16.60;2.80;;;;;;;14.13;74.82;99089.28;5079455;28;20032;-61
2023/03/31 09:50:10;;;;;;;16.38;2.97;;;;;;;13.85;73.32;99095.06;5066186;28;20054;-60
2023/03/31 09:52:42;;;;;;;16.65;2.83;;;;;;;13.63;73.75;99087.41;5088921;28;20047;-61
2023/03/31 09:55:19;;;;;;;18.13;3.10;;;;;;;13.22;76.15;99117.06;5085646;28;20058;-61
2023/03/31 09:57:52;;;;;;;13.85;2.40;;;;;;;12.44;81.08;99109.88;5061090;28;20119;-60
2023/03/31 10:00:21;;;;;;;20.48;2.88;;;;;;;12.26;82.76;99089.22;5072990;28;20139;-61
2023/03/31 10:02:52;;;;;;;16.73;2.50;;;;;;;12.05;82.98;99101.69;5074949;28;20056;-60
2023/03/31 10:05:30;;;;;;;13.95;2.80;;;;;;;12.07;81.57;99088.22;5079707;28;20127;-61
2023/03/31 10:14:05;;;;;;;19.48;2.53;;;;;;;12.58;84.01;99086.75;5093940;27;20380;-62
2023/03/31 10:16:42;;;;;;;17.00;3.40;;;;;;;12.72;81.43;99079.56;5099028;28;20066;-61
2023/03/31 10:19:27;;;;;;;26.27;4.18;;;;;;;12.81;81.67;99079.13;5068437;28;20039;-61
2023/03/31 10:22:02;;;;;;;21.17;3.15;;;;;;;12.89;80.59;99077.25;5074527;28;20036;-61
2023/03/31 10:24:38;;;;;;;20.90;3.30;;;;;;;13.04;80.48;99069.81;5104935;28;20406;-59
2023/03/31 10:27:18;;;;;;;20.20;4.20;;;;;;;13.37;80.47;99067.06;5081201;28;20076;-59
2023/03/31 10:29:46;;;;;;;20.63;3.55;;;;;;;13.44;79.34;99053.69;5077110;28;20051;-61
2023/03/31 10:32:31;;;;;;;25.55;4.05;;;;;;;13.64;78.56;99050.91;5082451;28;20465;-60
2023/03/31 10:35:05;;;;;;;23.25;4.63;;;;;;;13.96;78.85;99042.91;5071467;28;20051;-59
2023/03/31 10:37:35;;;;;;;22.38;3.25;;;;;;;14.24;76.17;99041.63;5086024;28;20608;-61
2023/03/31 10:40:11;;;;;;;20.88;3.17;;;;;;;14.57;76.31;99049.28;5073516;28;20051;-61
2023/03/31 10:42:38;;;;;;;15.43;2.60;;;;;;;14.77;70.24;99047.28;5083321;28;20467;-59
2023/03/31 10:45:25;;;;;;;19.30;3.50;;;;;;;15.03;70.89;99037.31;5092926;28;20139;-62
2023/03/31 10:48:00;;;;;;;12.82;2.80;;;;;;;14.80;70.82;99061.22;5076815;28;20059;-61
2023/03/31 10:50:33;;;;;;;21.88;3.22;;;;;;;14.55;69.77;99084.22;5078351;28;20067;-61
2023/03/31 10:53:04;;;;;;;17.95;2.53;;;;;;;12.48;86.58;99100.47;5082818;28;20046;-62
2023/03/31 10:55:40;;;;;;;13.68;1.98;;;;;;;11.18;91.17;99111.25;5081078;28;20059;-61
2023/03/31 10:58:33;;;;;;;11.80;2.20;;;;;;;10.85;94.41;99077.41;5081435;28;20052;-62
2023/03/31 11:01:06;;;;;;;;;;;;;;;10.69;94.54;99091.00;5086026;28;20109;-61
2023/03/31 11:03:46;;;;;;;10.65;2.00;;;;;;;10.70;96.43;99080.19;5076668;28;19924;-60
2023/03/31 11:06:24;;;;;;;12.18;1.92;;;;;;;10.83;97.41;99092.72;5079604;28;20051;-62
2023/03/31 11:09:06;;;;;;;17.00;2.30;;;;;;;10.83;95.89;99090.06;5089756;28;20055;-62
2023/03/31 11:11:57;;;;;;;17.60;2.63;;;;;;;11.02;94.84;99085.06;5080989;28;20077;-62
2023/03/31 11:14:39;;;;;;;15.03;2.40;;;;;;;11.21;95.81;99076.34;5102162;28;20039;-62
2023/03/31 11:20:30;;;;;;;8.48;1.70;;;;;;;11.28;90.53;99076.41;5029181;28;21060;-62
2023/03/31 11:23:27;;;;;;;9.23;1.83;;;;;;;11.45;88.95;99082.97;5036923;28;20056;-62
2023/03/31 11:26:04;;;;;;;10.88;2.28;;;;;;;11.57;84.81;99069.09;5014407;28;20491;-61
2023/03/31 11:31:57;;;;;;;9.60;1.88;;;;;;;11.84;86.51;99046.88;5109651;27;20452;-62
2023/03/31 11:34:44;;;;;;;18.15;2.65;;;;;;;11.88;87.30;99041.97;5072076;28;20409;-62
2023/03/31 11:37:40;;;;;;;11.05;2.50;;;;;;;11.99;86.10;99041.41;5089723;28;20066;-62
2023/03/31 11:42:53;;;;;;;11.18;2.65;;;;;;;12.19;85.21;99043.22;5100578;27;20182;-60
2023/03/31 11:45:33;;;;;;;14.55;2.22;;;;;;;12.29;84.96;99035.63;5092467;28;20489;-61
2023/03/31 11:48:05;;;;;;;16.48;2.40;;;;;;;12.53;82.21;99042.13;5102950;28;20040;-63
2023/03/31 11:50:38;;;;;;;16.75;2.40;;;;;;;12.48;81.67;99037.47;5091833;28;20785;-63
2023/03/31 11:53:14;;;;;;;14.27;2.78;;;;;;;12.60;81.99;99036.81;5088678;28;20055;-61
2023/03/31 11:55:42;;;;;;;13.52;2.22;;;;;;;12.82;82.41;99038.19;5107237;28;20047;-62
2023/03/31 11:58:30;;;;;;;11.98;2.50;;;;;;;13.00;77.36;99023.38;5092387;28;20085;-62
2023/03/31 12:01:08;;;;;;;12.68;2.38;;;;;;;13.16;79.30;99027.41;5098579;28;20139;-63
2023/03/31 12:04:02;;;;;;;14.43;2.20;;;;;;;13.23;78.68;99028.19;5105079;28;20054;-61
2023/03/31 12:06:34;;;;;;;14.13;2.72;;;;;;;13.30;81.67;99031.63;5092129;28;20146;-61
2023/03/31 12:09:24;;;;;;;22.92;3.55;;;;;;;13.16;77.60;99019.41;5061839;28;20497;-62
2023/03/31 12:11:57;;;;;;;17.27;3.85;;;;;;;13.29;77.95;99019.31;5108000;28;20122;-62
2023/03/31 12:14:50;;;;;;;19.77;4.45;;;;;;;12.90;79.02;99028.31;5092067;28;20052;-62